Hlavní strana
METAR-TAF:

METAR-TAF

Letiště :

Maiduguri, Nigérie

zeměpisná šířka: 11-51N, zeměpisná délka: 013-05E, výška: 354 m

METAR: chybějící

Čas: 23:10 (22:10 UTC)

Předpověď počasí

Zpráva byla vytvořena před 17 hodinami a 10 minutami, v 05:00 UTC
Předpověď platná od 04 v 06 UTC do 04 v 12 UTC
Západojihozápadní vítr 8 kt
Viditelnost 10 km a více
Žádná oblačnost pod 1500 m, nevyskytují se cumulonimby.

TAF: DNMA 040500Z 0406/0412 24008KT CAVOK

Stav a předpovědi počasí z více než 4 000 letišť (zprávy METAR a TAF).

Červené a žluté tečky na mapě představují dostupné meteorologické stanice.

Když kurzor umístíte na tečku, zobrazí se název stanice.

Pak kliknutím zobrazíte stav a předpověď počasí.

Chcete-li změnit mapu, kliknutím na zelené tlačítko se znaménkem +mapu přiblížíte, kliknutím na zelené tlačítko se znaménkem – mapu oddálíte a kliknutím na zelené šipky přejdete na sousední mapy.


METAR-TAF: